Posen, Michigan
Current Conditions -  °F | °C
As of 1:14 AM on Sunday 23 Nov 2014 (Local Time) from KPZQ Reporting Station
Haze Haze  
Wind Chill: 35°   Ceiling: 300
Heat Index: 38°   Visibility: 1mi
Dew Point: 38°   Wind: 5mph
Humidity: 100%   Direction: 180°S
Pressure: 29.83"   Gusts: NA
Location:  45.26°N, 83.7°W
Report Text: KPZQ 230614Z AUTO 18004KT 1SM BR OVC003 04/04 A2983 RMK AO2 T00350035
Loading
Personal Weather Stations






























Interactive Weather Map New forecast layout! Learn more

10-Day Weather Forecast

Advertisements
Track Severe Weather on mobile